sensor_id;sensor_type;location;lat;lon;timestamp;P1;durP1;ratioP1;P2;durP2;ratioP2
41446;SDS011;27185;52.040;4.490;2024-03-07T00:00:45;51.42;;;28.15;;
41446;SDS011;27185;52.040;4.490;2024-03-07T00:03:32;53.35;;;28.92;;
41446;SDS011;27185;52.040;4.490;2024-03-07T00:06:19;47.22;;;26.90;;
41446;SDS011;27185;52.040;4.490;2024-03-07T00:09:06;53.95;;;29.77;;
41446;SDS011;27185;52.040;4.490;2024-03-07T00:11:51;57.00;;;30.65;;
41446;SDS011;27185;52.040;4.490;2024-03-07T00:14:37;51.97;;;28.65;;
41446;SDS011;27185;52.040;4.490;2024-03-07T00:17:23;52.28;;;28.42;;
41446;SDS011;27185;52.040;4.490;2024-03-07T00:20:09;51.63;;;29.65;;
41446;SDS011;27185;52.040;4.490;2024-03-07T00:22:59;49.38;;;28.00;;
41446;SDS011;27185;52.040;4.490;2024-03-07T00:25:45;53.03;;;28.77;;
41446;SDS011;27185;52.040;4.490;2024-03-07T00:28:34;56.03;;;30.20;;
41446;SDS011;27185;52.040;4.490;2024-03-07T00:31:24;58.90;;;30.88;;
41446;SDS011;27185;52.040;4.490;2024-03-07T00:34:10;55.72;;;29.10;;
41446;SDS011;27185;52.040;4.490;2024-03-07T00:36:56;54.05;;;30.10;;
41446;SDS011;27185;52.040;4.490;2024-03-07T00:39:44;57.93;;;29.70;;
41446;SDS011;27185;52.040;4.490;2024-03-07T00:42:29;57.47;;;29.88;;
41446;SDS011;27185;52.040;4.490;2024-03-07T00:45:16;57.78;;;30.73;;
41446;SDS011;27185;52.040;4.490;2024-03-07T00:48:03;60.97;;;31.50;;
41446;SDS011;27185;52.040;4.490;2024-03-07T00:50:50;56.38;;;30.45;;
41446;SDS011;27185;52.040;4.490;2024-03-07T00:53:36;49.08;;;30.55;;
41446;SDS011;27185;52.040;4.490;2024-03-07T00:56:22;53.20;;;29.38;;
41446;SDS011;27185;52.040;4.490;2024-03-07T00:59:09;58.45;;;30.45;;
41446;SDS011;27185;52.040;4.490;2024-03-07T01:01:55;57.28;;;30.95;;
41446;SDS011;27185;52.040;4.490;2024-03-07T01:04:41;55.45;;;31.25;;
41446;SDS011;27185;52.040;4.490;2024-03-07T01:07:26;56.33;;;30.73;;
41446;SDS011;27185;52.040;4.490;2024-03-07T01:10:14;56.38;;;30.15;;
41446;SDS011;27185;52.040;4.490;2024-03-07T01:13:00;56.65;;;31.13;;
41446;SDS011;27185;52.040;4.490;2024-03-07T01:15:47;57.45;;;31.15;;
41446;SDS011;27185;52.040;4.490;2024-03-07T01:18:34;57.80;;;32.75;;
41446;SDS011;27185;52.040;4.490;2024-03-07T01:21:20;55.88;;;30.83;;
41446;SDS011;27185;52.040;4.490;2024-03-07T01:24:05;54.92;;;29.10;;
41446;SDS011;27185;52.040;4.490;2024-03-07T01:26:51;58.97;;;31.52;;
41446;SDS011;27185;52.040;4.490;2024-03-07T01:29:38;61.47;;;31.92;;
41446;SDS011;27185;52.040;4.490;2024-03-07T01:32:26;60.13;;;29.90;;
41446;SDS011;27185;52.040;4.490;2024-03-07T01:35:13;57.13;;;31.27;;
41446;SDS011;27185;52.040;4.490;2024-03-07T01:37:59;56.85;;;31.30;;
41446;SDS011;27185;52.040;4.490;2024-03-07T01:40:45;63.38;;;32.13;;
41446;SDS011;27185;52.040;4.490;2024-03-07T01:43:31;57.17;;;30.30;;
41446;SDS011;27185;52.040;4.490;2024-03-07T01:46:17;54.45;;;30.45;;
41446;SDS011;27185;52.040;4.490;2024-03-07T01:49:04;52.73;;;30.27;;
41446;SDS011;27185;52.040;4.490;2024-03-07T01:51:52;54.63;;;29.30;;
41446;SDS011;27185;52.040;4.490;2024-03-07T01:54:38;53.30;;;29.35;;
41446;SDS011;27185;52.040;4.490;2024-03-07T01:57:23;57.95;;;29.17;;
41446;SDS011;27185;52.040;4.490;2024-03-07T02:00:11;55.75;;;29.35;;
41446;SDS011;27185;52.040;4.490;2024-03-07T02:02:58;58.37;;;31.20;;
41446;SDS011;27185;52.040;4.490;2024-03-07T02:05:44;53.22;;;29.10;;
41446;SDS011;27185;52.040;4.490;2024-03-07T02:08:30;54.58;;;28.98;;
41446;SDS011;27185;52.040;4.490;2024-03-07T02:11:17;53.55;;;31.42;;
41446;SDS011;27185;52.040;4.490;2024-03-07T02:14:04;55.85;;;30.90;;
41446;SDS011;27185;52.040;4.490;2024-03-07T02:16:50;59.80;;;31.35;;
41446;SDS011;27185;52.040;4.490;2024-03-07T02:19:36;55.63;;;30.85;;
41446;SDS011;27185;52.040;4.490;2024-03-07T02:22:22;60.17;;;32.08;;
41446;SDS011;27185;52.040;4.490;2024-03-07T02:25:09;59.28;;;32.17;;
41446;SDS011;27185;52.040;4.490;2024-03-07T02:27:56;57.10;;;31.88;;
41446;SDS011;27185;52.040;4.490;2024-03-07T02:30:42;63.60;;;32.85;;
41446;SDS011;27185;52.040;4.490;2024-03-07T02:33:27;57.70;;;30.83;;
41446;SDS011;27185;52.040;4.490;2024-03-07T02:36:18;58.58;;;30.45;;
41446;SDS011;27185;52.040;4.490;2024-03-07T02:39:04;59.37;;;31.27;;
41446;SDS011;27185;52.040;4.490;2024-03-07T02:41:51;59.43;;;31.90;;
41446;SDS011;27185;52.040;4.490;2024-03-07T02:44:38;63.90;;;33.25;;
41446;SDS011;27185;52.040;4.490;2024-03-07T02:47:23;58.70;;;32.35;;
41446;SDS011;27185;52.040;4.490;2024-03-07T02:50:10;56.17;;;31.27;;
41446;SDS011;27185;52.040;4.490;2024-03-07T02:52:55;60.17;;;31.10;;
41446;SDS011;27185;52.040;4.490;2024-03-07T02:55:41;56.75;;;30.65;;
41446;SDS011;27185;52.040;4.490;2024-03-07T02:58:27;64.25;;;33.60;;
41446;SDS011;27185;52.040;4.490;2024-03-07T03:01:13;66.72;;;35.65;;
41446;SDS011;27185;52.040;4.490;2024-03-07T03:03:58;62.97;;;33.28;;
41446;SDS011;27185;52.040;4.490;2024-03-07T03:06:47;58.58;;;31.58;;
41446;SDS011;27185;52.040;4.490;2024-03-07T03:09:33;66.93;;;35.53;;
41446;SDS011;27185;52.040;4.490;2024-03-07T03:12:19;73.57;;;37.20;;
41446;SDS011;27185;52.040;4.490;2024-03-07T03:17:55;69.43;;;34.67;;
41446;SDS011;27185;52.040;4.490;2024-03-07T03:20:42;64.43;;;33.00;;
41446;SDS011;27185;52.040;4.490;2024-03-07T03:23:29;63.13;;;34.80;;
41446;SDS011;27185;52.040;4.490;2024-03-07T03:26:15;69.13;;;34.17;;
41446;SDS011;27185;52.040;4.490;2024-03-07T03:29:01;72.28;;;36.05;;
41446;SDS011;27185;52.040;4.490;2024-03-07T03:31:47;75.35;;;37.05;;
41446;SDS011;27185;52.040;4.490;2024-03-07T03:34:33;73.20;;;35.88;;
41446;SDS011;27185;52.040;4.490;2024-03-07T03:37:19;63.13;;;32.75;;
41446;SDS011;27185;52.040;4.490;2024-03-07T03:40:06;67.88;;;33.95;;
41446;SDS011;27185;52.040;4.490;2024-03-07T03:42:54;68.70;;;35.42;;
41446;SDS011;27185;52.040;4.490;2024-03-07T03:45:40;66.85;;;36.65;;
41446;SDS011;27185;52.040;4.490;2024-03-07T03:48:26;71.20;;;37.45;;
41446;SDS011;27185;52.040;4.490;2024-03-07T03:51:12;70.88;;;36.33;;
41446;SDS011;27185;52.040;4.490;2024-03-07T03:53:58;70.70;;;36.25;;
41446;SDS011;27185;52.040;4.490;2024-03-07T03:56:43;68.25;;;35.42;;
41446;SDS011;27185;52.040;4.490;2024-03-07T03:59:29;75.00;;;34.45;;
41446;SDS011;27185;52.040;4.490;2024-03-07T04:02:15;72.00;;;36.53;;
41446;SDS011;27185;52.040;4.490;2024-03-07T04:05:02;69.70;;;36.90;;
41446;SDS011;27185;52.040;4.490;2024-03-07T04:07:48;66.43;;;34.25;;
41446;SDS011;27185;52.040;4.490;2024-03-07T04:10:34;70.30;;;36.58;;
41446;SDS011;27185;52.040;4.490;2024-03-07T04:13:20;70.50;;;35.25;;
41446;SDS011;27185;52.040;4.490;2024-03-07T04:16:07;69.38;;;35.03;;
41446;SDS011;27185;52.040;4.490;2024-03-07T04:18:53;73.43;;;37.83;;
41446;SDS011;27185;52.040;4.490;2024-03-07T04:21:39;69.63;;;37.22;;
41446;SDS011;27185;52.040;4.490;2024-03-07T04:24:25;69.13;;;35.90;;
41446;SDS011;27185;52.040;4.490;2024-03-07T04:27:11;63.53;;;35.70;;
41446;SDS011;27185;52.040;4.490;2024-03-07T04:29:57;70.13;;;37.08;;
41446;SDS011;27185;52.040;4.490;2024-03-07T04:32:43;74.38;;;39.17;;
41446;SDS011;27185;52.040;4.490;2024-03-07T04:35:29;67.82;;;36.65;;
41446;SDS011;27185;52.040;4.490;2024-03-07T04:38:16;71.90;;;36.92;;
41446;SDS011;27185;52.040;4.490;2024-03-07T04:41:02;64.53;;;35.00;;
41446;SDS011;27185;52.040;4.490;2024-03-07T04:43:49;68.43;;;35.53;;
41446;SDS011;27185;52.040;4.490;2024-03-07T04:46:37;63.22;;;34.70;;
41446;SDS011;27185;52.040;4.490;2024-03-07T04:49:28;66.50;;;36.55;;
41446;SDS011;27185;52.040;4.490;2024-03-07T04:52:15;72.18;;;37.95;;
41446;SDS011;27185;52.040;4.490;2024-03-07T04:55:00;72.43;;;37.45;;
41446;SDS011;27185;52.040;4.490;2024-03-07T04:57:46;65.43;;;36.22;;
41446;SDS011;27185;52.040;4.490;2024-03-07T05:00:32;68.50;;;37.25;;
41446;SDS011;27185;52.040;4.490;2024-03-07T05:03:18;62.20;;;35.35;;
41446;SDS011;27185;52.040;4.490;2024-03-07T05:06:04;69.75;;;37.47;;
41446;SDS011;27185;52.040;4.490;2024-03-07T05:08:50;66.55;;;35.67;;
41446;SDS011;27185;52.040;4.490;2024-03-07T05:11:37;74.50;;;38.78;;
41446;SDS011;27185;52.040;4.490;2024-03-07T05:14:23;73.40;;;35.53;;
41446;SDS011;27185;52.040;4.490;2024-03-07T05:17:10;61.85;;;35.28;;
41446;SDS011;27185;52.040;4.490;2024-03-07T05:19:57;71.28;;;38.25;;
41446;SDS011;27185;52.040;4.490;2024-03-07T05:22:44;76.97;;;40.77;;
41446;SDS011;27185;52.040;4.490;2024-03-07T05:25:35;70.82;;;37.28;;
41446;SDS011;27185;52.040;4.490;2024-03-07T05:28:21;76.28;;;40.72;;
41446;SDS011;27185;52.040;4.490;2024-03-07T05:31:11;82.10;;;41.90;;
41446;SDS011;27185;52.040;4.490;2024-03-07T05:33:57;83.78;;;42.88;;
41446;SDS011;27185;52.040;4.490;2024-03-07T05:36:43;68.30;;;38.47;;
41446;SDS011;27185;52.040;4.490;2024-03-07T05:39:30;79.13;;;40.78;;
41446;SDS011;27185;52.040;4.490;2024-03-07T05:42:16;74.15;;;39.13;;
41446;SDS011;27185;52.040;4.490;2024-03-07T05:45:02;75.60;;;39.92;;
41446;SDS011;27185;52.040;4.490;2024-03-07T05:47:50;68.35;;;36.03;;
41446;SDS011;27185;52.040;4.490;2024-03-07T05:50:36;75.13;;;39.45;;
41446;SDS011;27185;52.040;4.490;2024-03-07T05:53:22;71.75;;;37.40;;
41446;SDS011;27185;52.040;4.490;2024-03-07T05:56:08;64.05;;;34.10;;
41446;SDS011;27185;52.040;4.490;2024-03-07T05:58:54;76.15;;;40.15;;
41446;SDS011;27185;52.040;4.490;2024-03-07T06:01:40;73.50;;;39.28;;
41446;SDS011;27185;52.040;4.490;2024-03-07T06:04:26;72.95;;;38.20;;
41446;SDS011;27185;52.040;4.490;2024-03-07T06:10:00;68.57;;;35.15;;
41446;SDS011;27185;52.040;4.490;2024-03-07T06:12:46;67.57;;;35.85;;
41446;SDS011;27185;52.040;4.490;2024-03-07T06:15:33;70.13;;;37.15;;
41446;SDS011;27185;52.040;4.490;2024-03-07T06:18:19;70.35;;;36.90;;
41446;SDS011;27185;52.040;4.490;2024-03-07T06:21:05;67.45;;;35.40;;
41446;SDS011;27185;52.040;4.490;2024-03-07T06:23:51;78.50;;;40.15;;
41446;SDS011;27185;52.040;4.490;2024-03-07T06:26:44;68.18;;;37.38;;
41446;SDS011;27185;52.040;4.490;2024-03-07T06:32:18;73.47;;;34.92;;
41446;SDS011;27185;52.040;4.490;2024-03-07T06:35:04;72.53;;;36.75;;
41446;SDS011;27185;52.040;4.490;2024-03-07T06:37:50;72.13;;;36.85;;
41446;SDS011;27185;52.040;4.490;2024-03-07T06:40:36;79.60;;;41.60;;
41446;SDS011;27185;52.040;4.490;2024-03-07T06:43:22;75.03;;;39.08;;
41446;SDS011;27185;52.040;4.490;2024-03-07T06:46:09;74.78;;;40.08;;
41446;SDS011;27185;52.040;4.490;2024-03-07T06:48:54;75.55;;;38.25;;
41446;SDS011;27185;52.040;4.490;2024-03-07T06:51:43;73.95;;;38.90;;
41446;SDS011;27185;52.040;4.490;2024-03-07T06:54:29;71.10;;;37.58;;
41446;SDS011;27185;52.040;4.490;2024-03-07T06:57:17;73.65;;;39.70;;
41446;SDS011;27185;52.040;4.490;2024-03-07T07:00:03;72.40;;;39.72;;
41446;SDS011;27185;52.040;4.490;2024-03-07T07:02:58;64.20;;;35.33;;
41446;SDS011;27185;52.040;4.490;2024-03-07T07:05:44;77.65;;;39.10;;
41446;SDS011;27185;52.040;4.490;2024-03-07T07:08:30;68.30;;;38.22;;
41446;SDS011;27185;52.040;4.490;2024-03-07T07:11:16;71.57;;;37.47;;
41446;SDS011;27185;52.040;4.490;2024-03-07T07:14:02;68.32;;;36.53;;
41446;SDS011;27185;52.040;4.490;2024-03-07T07:16:51;70.45;;;38.22;;
41446;SDS011;27185;52.040;4.490;2024-03-07T07:19:37;64.20;;;37.05;;
41446;SDS011;27185;52.040;4.490;2024-03-07T07:22:24;64.43;;;34.70;;
41446;SDS011;27185;52.040;4.490;2024-03-07T07:25:11;71.30;;;38.83;;
41446;SDS011;27185;52.040;4.490;2024-03-07T07:28:00;64.78;;;37.60;;
41446;SDS011;27185;52.040;4.490;2024-03-07T07:30:49;67.68;;;37.38;;
41446;SDS011;27185;52.040;4.490;2024-03-07T07:33:35;67.63;;;35.03;;
41446;SDS011;27185;52.040;4.490;2024-03-07T07:36:21;72.97;;;38.70;;
41446;SDS011;27185;52.040;4.490;2024-03-07T07:39:07;72.93;;;40.42;;
41446;SDS011;27185;52.040;4.490;2024-03-07T07:42:03;74.63;;;40.08;;
41446;SDS011;27185;52.040;4.490;2024-03-07T07:44:49;72.20;;;39.53;;
41446;SDS011;27185;52.040;4.490;2024-03-07T07:47:35;71.47;;;36.78;;
41446;SDS011;27185;52.040;4.490;2024-03-07T07:50:23;71.53;;;39.63;;
41446;SDS011;27185;52.040;4.490;2024-03-07T07:53:09;70.82;;;39.10;;
41446;SDS011;27185;52.040;4.490;2024-03-07T07:55:55;69.15;;;37.45;;
41446;SDS011;27185;52.040;4.490;2024-03-07T07:58:41;72.30;;;38.88;;
41446;SDS011;27185;52.040;4.490;2024-03-07T08:01:27;68.72;;;38.50;;
41446;SDS011;27185;52.040;4.490;2024-03-07T08:04:12;69.70;;;37.80;;
41446;SDS011;27185;52.040;4.490;2024-03-07T08:06:58;62.78;;;37.10;;
41446;SDS011;27185;52.040;4.490;2024-03-07T08:09:44;64.75;;;37.10;;
41446;SDS011;27185;52.040;4.490;2024-03-07T08:12:30;65.05;;;36.95;;
41446;SDS011;27185;52.040;4.490;2024-03-07T08:15:16;72.13;;;38.00;;
41446;SDS011;27185;52.040;4.490;2024-03-07T08:18:02;63.42;;;37.08;;
41446;SDS011;27185;52.040;4.490;2024-03-07T08:20:53;68.43;;;38.20;;
41446;SDS011;27185;52.040;4.490;2024-03-07T08:23:38;65.75;;;36.47;;
41446;SDS011;27185;52.040;4.490;2024-03-07T08:26:24;71.10;;;37.58;;
41446;SDS011;27185;52.040;4.490;2024-03-07T08:29:10;67.28;;;39.55;;
41446;SDS011;27185;52.040;4.490;2024-03-07T08:31:57;63.08;;;38.22;;
41446;SDS011;27185;52.040;4.490;2024-03-07T08:34:42;59.72;;;36.67;;
41446;SDS011;27185;52.040;4.490;2024-03-07T08:37:28;75.20;;;39.97;;
41446;SDS011;27185;52.040;4.490;2024-03-07T08:40:13;66.82;;;38.92;;
41446;SDS011;27185;52.040;4.490;2024-03-07T08:43:04;69.20;;;37.58;;
41446;SDS011;27185;52.040;4.490;2024-03-07T08:45:52;64.10;;;37.22;;
41446;SDS011;27185;52.040;4.490;2024-03-07T08:48:37;57.92;;;34.88;;
41446;SDS011;27185;52.040;4.490;2024-03-07T08:51:23;58.38;;;34.92;;
41446;SDS011;27185;52.040;4.490;2024-03-07T08:54:08;63.97;;;36.92;;
41446;SDS011;27185;52.040;4.490;2024-03-07T08:56:54;56.97;;;34.53;;
41446;SDS011;27185;52.040;4.490;2024-03-07T08:59:40;65.25;;;37.08;;
41446;SDS011;27185;52.040;4.490;2024-03-07T09:02:25;61.05;;;34.55;;
41446;SDS011;27185;52.040;4.490;2024-03-07T09:05:11;54.05;;;33.40;;
41446;SDS011;27185;52.040;4.490;2024-03-07T09:07:58;61.20;;;35.67;;
41446;SDS011;27185;52.040;4.490;2024-03-07T09:10:44;62.45;;;34.85;;
41446;SDS011;27185;52.040;4.490;2024-03-07T09:13:30;54.05;;;32.55;;
41446;SDS011;27185;52.040;4.490;2024-03-07T09:16:16;53.90;;;32.00;;
41446;SDS011;27185;52.040;4.490;2024-03-07T09:19:01;54.15;;;31.92;;
41446;SDS011;27185;52.040;4.490;2024-03-07T09:21:48;50.40;;;31.88;;
41446;SDS011;27185;52.040;4.490;2024-03-07T09:24:35;47.83;;;31.23;;
41446;SDS011;27185;52.040;4.490;2024-03-07T09:27:22;47.67;;;29.40;;
41446;SDS011;27185;52.040;4.490;2024-03-07T09:30:08;48.13;;;30.90;;
41446;SDS011;27185;52.040;4.490;2024-03-07T09:32:56;47.00;;;30.42;;
41446;SDS011;27185;52.040;4.490;2024-03-07T09:35:42;48.30;;;29.33;;
41446;SDS011;27185;52.040;4.490;2024-03-07T09:38:28;51.30;;;30.48;;
41446;SDS011;27185;52.040;4.490;2024-03-07T09:41:14;44.70;;;26.85;;
41446;SDS011;27185;52.040;4.490;2024-03-07T09:44:01;50.08;;;30.77;;
41446;SDS011;27185;52.040;4.490;2024-03-07T09:46:57;50.10;;;30.58;;
41446;SDS011;27185;52.040;4.490;2024-03-07T09:49:46;48.38;;;30.48;;
41446;SDS011;27185;52.040;4.490;2024-03-07T09:52:32;44.85;;;27.30;;
41446;SDS011;27185;52.040;4.490;2024-03-07T09:55:17;38.38;;;25.73;;
41446;SDS011;27185;52.040;4.490;2024-03-07T09:58:04;39.13;;;26.38;;
41446;SDS011;27185;52.040;4.490;2024-03-07T10:00:51;42.17;;;26.30;;
41446;SDS011;27185;52.040;4.490;2024-03-07T10:03:39;40.65;;;26.00;;
41446;SDS011;27185;52.040;4.490;2024-03-07T10:06:29;44.38;;;26.67;;
41446;SDS011;27185;52.040;4.490;2024-03-07T10:09:15;42.58;;;28.33;;
41446;SDS011;27185;52.040;4.490;2024-03-07T10:12:01;38.28;;;25.63;;
41446;SDS011;27185;52.040;4.490;2024-03-07T10:14:48;36.25;;;23.73;;
41446;SDS011;27185;52.040;4.490;2024-03-07T10:17:35;40.10;;;25.08;;
41446;SDS011;27185;52.040;4.490;2024-03-07T10:20:22;38.00;;;23.20;;
41446;SDS011;27185;52.040;4.490;2024-03-07T10:23:09;36.80;;;22.23;;
41446;SDS011;27185;52.040;4.490;2024-03-07T10:25:55;33.53;;;20.70;;
41446;SDS011;27185;52.040;4.490;2024-03-07T10:28:42;29.90;;;19.35;;
41446;SDS011;27185;52.040;4.490;2024-03-07T10:31:31;31.70;;;21.33;;
41446;SDS011;27185;52.040;4.490;2024-03-07T10:34:18;32.05;;;20.10;;
41446;SDS011;27185;52.040;4.490;2024-03-07T10:37:04;29.30;;;20.40;;
41446;SDS011;27185;52.040;4.490;2024-03-07T10:39:50;26.38;;;18.75;;
41446;SDS011;27185;52.040;4.490;2024-03-07T10:42:35;30.23;;;18.60;;
41446;SDS011;27185;52.040;4.490;2024-03-07T10:45:23;25.27;;;18.30;;
41446;SDS011;27185;52.040;4.490;2024-03-07T10:48:13;22.30;;;15.18;;
41446;SDS011;27185;52.040;4.490;2024-03-07T10:57:20;22.75;;;16.10;;
41446;SDS011;27185;52.040;4.490;2024-03-07T11:00:14;24.33;;;16.75;;
41446;SDS011;27185;52.040;4.490;2024-03-07T11:03:16;23.55;;;16.85;;
41446;SDS011;27185;52.040;4.490;2024-03-07T11:06:06;23.13;;;15.65;;
41446;SDS011;27185;52.040;4.490;2024-03-07T11:08:56;24.63;;;17.70;;
41446;SDS011;27185;52.040;4.490;2024-03-07T11:11:42;21.38;;;16.48;;
41446;SDS011;27185;52.040;4.490;2024-03-07T11:14:28;24.90;;;16.48;;
41446;SDS011;27185;52.040;4.490;2024-03-07T11:17:16;23.65;;;16.77;;
41446;SDS011;27185;52.040;4.490;2024-03-07T11:23:27;22.80;;;15.70;;
41446;SDS011;27185;52.040;4.490;2024-03-07T11:26:23;21.45;;;15.90;;
41446;SDS011;27185;52.040;4.490;2024-03-07T11:29:47;23.63;;;17.83;;
41446;SDS011;27185;52.040;4.490;2024-03-07T11:32:34;24.20;;;15.98;;
41446;SDS011;27185;52.040;4.490;2024-03-07T11:35:33;25.33;;;17.55;;
41446;SDS011;27185;52.040;4.490;2024-03-07T11:38:21;27.13;;;18.02;;
41446;SDS011;27185;52.040;4.490;2024-03-07T11:41:19;23.60;;;17.83;;
41446;SDS011;27185;52.040;4.490;2024-03-07T11:44:05;24.27;;;18.08;;
41446;SDS011;27185;52.040;4.490;2024-03-07T11:46:51;22.33;;;16.52;;
41446;SDS011;27185;52.040;4.490;2024-03-07T11:49:37;21.92;;;16.15;;
41446;SDS011;27185;52.040;4.490;2024-03-07T11:52:22;21.42;;;16.33;;
41446;SDS011;27185;52.040;4.490;2024-03-07T11:55:09;20.33;;;14.55;;
41446;SDS011;27185;52.040;4.490;2024-03-07T11:57:56;21.52;;;15.35;;
41446;SDS011;27185;52.040;4.490;2024-03-07T12:00:45;20.08;;;14.50;;
41446;SDS011;27185;52.040;4.490;2024-03-07T12:03:32;18.23;;;12.38;;
41446;SDS011;27185;52.040;4.490;2024-03-07T12:06:19;18.35;;;14.32;;
41446;SDS011;27185;52.040;4.490;2024-03-07T12:09:09;17.48;;;13.60;;
41446;SDS011;27185;52.040;4.490;2024-03-07T12:12:08;17.80;;;13.73;;
41446;SDS011;27185;52.040;4.490;2024-03-07T12:14:54;17.65;;;13.98;;
41446;SDS011;27185;52.040;4.490;2024-03-07T12:17:39;16.30;;;12.73;;
41446;SDS011;27185;52.040;4.490;2024-03-07T12:20:26;17.40;;;14.00;;
41446;SDS011;27185;52.040;4.490;2024-03-07T12:23:15;16.85;;;13.15;;
41446;SDS011;27185;52.040;4.490;2024-03-07T12:26:04;19.55;;;13.48;;
41446;SDS011;27185;52.040;4.490;2024-03-07T12:28:50;17.83;;;13.63;;
41446;SDS011;27185;52.040;4.490;2024-03-07T12:31:36;15.35;;;11.70;;
41446;SDS011;27185;52.040;4.490;2024-03-07T12:34:25;18.40;;;13.52;;
41446;SDS011;27185;52.040;4.490;2024-03-07T12:37:15;21.10;;;13.88;;
41446;SDS011;27185;52.040;4.490;2024-03-07T12:40:10;20.65;;;14.00;;
41446;SDS011;27185;52.040;4.490;2024-03-07T12:43:14;22.48;;;14.07;;
41446;SDS011;27185;52.040;4.490;2024-03-07T12:46:05;17.15;;;13.65;;
41446;SDS011;27185;52.040;4.490;2024-03-07T12:48:50;19.40;;;14.98;;
41446;SDS011;27185;52.040;4.490;2024-03-07T12:51:36;17.50;;;13.52;;
41446;SDS011;27185;52.040;4.490;2024-03-07T12:54:23;20.15;;;14.95;;
41446;SDS011;27185;52.040;4.490;2024-03-07T12:57:10;20.73;;;14.63;;
41446;SDS011;27185;52.040;4.490;2024-03-07T12:59:56;20.40;;;15.30;;
41446;SDS011;27185;52.040;4.490;2024-03-07T13:02:41;20.40;;;14.70;;
41446;SDS011;27185;52.040;4.490;2024-03-07T13:08:15;22.63;;;16.80;;
41446;SDS011;27185;52.040;4.490;2024-03-07T13:11:01;22.80;;;15.82;;
41446;SDS011;27185;52.040;4.490;2024-03-07T13:13:47;21.63;;;15.05;;
41446;SDS011;27185;52.040;4.490;2024-03-07T13:16:36;19.55;;;15.07;;
41446;SDS011;27185;52.040;4.490;2024-03-07T13:19:21;20.27;;;14.80;;
41446;SDS011;27185;52.040;4.490;2024-03-07T13:22:07;18.33;;;13.98;;
41446;SDS011;27185;52.040;4.490;2024-03-07T13:24:57;19.40;;;15.23;;
41446;SDS011;27185;52.040;4.490;2024-03-07T13:28:05;22.10;;;16.80;;
41446;SDS011;27185;52.040;4.490;2024-03-07T13:30:58;23.45;;;15.38;;
41446;SDS011;27185;52.040;4.490;2024-03-07T13:33:44;24.05;;;17.05;;
41446;SDS011;27185;52.040;4.490;2024-03-07T13:36:31;20.92;;;15.35;;
41446;SDS011;27185;52.040;4.490;2024-03-07T13:39:16;22.83;;;16.50;;
41446;SDS011;27185;52.040;4.490;2024-03-07T13:42:02;18.77;;;14.48;;
41446;SDS011;27185;52.040;4.490;2024-03-07T13:44:49;19.92;;;15.02;;
41446;SDS011;27185;52.040;4.490;2024-03-07T13:47:36;18.80;;;14.40;;
41446;SDS011;27185;52.040;4.490;2024-03-07T13:50:23;20.40;;;15.20;;
41446;SDS011;27185;52.040;4.490;2024-03-07T14:02:47;24.75;;;16.10;;
41446;SDS011;27185;52.040;4.490;2024-03-07T14:06:08;20.70;;;15.32;;
41446;SDS011;27185;52.040;4.490;2024-03-07T14:09:13;22.67;;;14.65;;
41446;SDS011;27185;52.040;4.490;2024-03-07T14:21:44;21.83;;;14.10;;
41446;SDS011;27185;52.040;4.490;2024-03-07T14:31:07;20.42;;;13.50;;
41446;SDS011;27185;52.040;4.490;2024-03-07T14:36:46;17.00;;;11.63;;
41446;SDS011;27185;52.040;4.490;2024-03-07T14:39:35;16.33;;;11.27;;
41446;SDS011;27185;52.040;4.490;2024-03-07T14:42:24;16.95;;;12.30;;
41446;SDS011;27185;52.040;4.490;2024-03-07T14:45:11;17.70;;;12.23;;
41446;SDS011;27185;52.040;4.490;2024-03-07T14:48:04;19.73;;;12.18;;
41446;SDS011;27185;52.040;4.490;2024-03-07T14:50:52;19.20;;;12.85;;
41446;SDS011;27185;52.040;4.490;2024-03-07T14:53:38;16.40;;;11.65;;
41446;SDS011;27185;52.040;4.490;2024-03-07T14:56:27;17.00;;;11.93;;
41446;SDS011;27185;52.040;4.490;2024-03-07T14:59:13;18.20;;;12.45;;
41446;SDS011;27185;52.040;4.490;2024-03-07T15:02:00;15.77;;;12.40;;
41446;SDS011;27185;52.040;4.490;2024-03-07T15:04:48;16.35;;;10.98;;
41446;SDS011;27185;52.040;4.490;2024-03-07T15:07:33;16.45;;;11.13;;
41446;SDS011;27185;52.040;4.490;2024-03-07T15:10:21;13.90;;;10.50;;
41446;SDS011;27185;52.040;4.490;2024-03-07T15:13:12;16.98;;;13.50;;
41446;SDS011;27185;52.040;4.490;2024-03-07T15:15:59;18.02;;;13.25;;
41446;SDS011;27185;52.040;4.490;2024-03-07T15:18:44;19.42;;;13.35;;
41446;SDS011;27185;52.040;4.490;2024-03-07T15:21:30;15.02;;;11.70;;
41446;SDS011;27185;52.040;4.490;2024-03-07T15:24:16;15.13;;;11.02;;
41446;SDS011;27185;52.040;4.490;2024-03-07T15:27:01;15.60;;;12.02;;
41446;SDS011;27185;52.040;4.490;2024-03-07T15:29:48;13.10;;;10.88;;
41446;SDS011;27185;52.040;4.490;2024-03-07T15:32:33;13.18;;;10.60;;
41446;SDS011;27185;52.040;4.490;2024-03-07T15:35:19;13.60;;;10.57;;
41446;SDS011;27185;52.040;4.490;2024-03-07T15:38:05;15.82;;;12.43;;
41446;SDS011;27185;52.040;4.490;2024-03-07T15:41:01;16.90;;;12.70;;
41446;SDS011;27185;52.040;4.490;2024-03-07T15:43:47;15.70;;;12.50;;
41446;SDS011;27185;52.040;4.490;2024-03-07T15:46:32;16.98;;;13.20;;
41446;SDS011;27185;52.040;4.490;2024-03-07T15:49:18;19.27;;;13.90;;
41446;SDS011;27185;52.040;4.490;2024-03-07T15:52:04;17.17;;;12.15;;
41446;SDS011;27185;52.040;4.490;2024-03-07T15:54:51;14.77;;;12.25;;
41446;SDS011;27185;52.040;4.490;2024-03-07T15:57:36;16.27;;;12.45;;
41446;SDS011;27185;52.040;4.490;2024-03-07T16:00:27;15.48;;;12.52;;
41446;SDS011;27185;52.040;4.490;2024-03-07T16:03:14;14.52;;;11.90;;
41446;SDS011;27185;52.040;4.490;2024-03-07T16:05:59;14.18;;;11.38;;
41446;SDS011;27185;52.040;4.490;2024-03-07T16:08:45;12.90;;;10.25;;
41446;SDS011;27185;52.040;4.490;2024-03-07T16:11:30;12.75;;;10.18;;
41446;SDS011;27185;52.040;4.490;2024-03-07T16:14:16;14.82;;;11.32;;
41446;SDS011;27185;52.040;4.490;2024-03-07T16:17:02;15.00;;;11.73;;
41446;SDS011;27185;52.040;4.490;2024-03-07T16:22:40;17.23;;;12.82;;
41446;SDS011;27185;52.040;4.490;2024-03-07T16:25:26;16.48;;;12.07;;
41446;SDS011;27185;52.040;4.490;2024-03-07T16:28:12;17.80;;;13.43;;
41446;SDS011;27185;52.040;4.490;2024-03-07T16:30:58;16.10;;;11.85;;
41446;SDS011;27185;52.040;4.490;2024-03-07T16:33:46;16.13;;;11.82;;
41446;SDS011;27185;52.040;4.490;2024-03-07T16:36:31;16.35;;;11.18;;
41446;SDS011;27185;52.040;4.490;2024-03-07T16:39:17;19.02;;;12.43;;
41446;SDS011;27185;52.040;4.490;2024-03-07T16:42:02;15.90;;;11.77;;
41446;SDS011;27185;52.040;4.490;2024-03-07T16:44:50;16.08;;;11.55;;
41446;SDS011;27185;52.040;4.490;2024-03-07T16:47:46;15.93;;;11.75;;
41446;SDS011;27185;52.040;4.490;2024-03-07T16:50:36;21.63;;;13.07;;
41446;SDS011;27185;52.040;4.490;2024-03-07T16:53:25;16.63;;;11.70;;
41446;SDS011;27185;52.040;4.490;2024-03-07T16:56:11;17.58;;;12.90;;
41446;SDS011;27185;52.040;4.490;2024-03-07T16:59:00;18.30;;;12.52;;
41446;SDS011;27185;52.040;4.490;2024-03-07T17:01:45;20.05;;;12.75;;
41446;SDS011;27185;52.040;4.490;2024-03-07T17:04:31;19.90;;;13.13;;
41446;SDS011;27185;52.040;4.490;2024-03-07T17:07:18;17.05;;;12.40;;
41446;SDS011;27185;52.040;4.490;2024-03-07T17:10:04;18.48;;;13.05;;